createdAt,value
2018-09-23T00:00:15.043Z,100192.20
2018-09-23T00:02:43.449Z,100197.38
2018-09-23T00:05:11.910Z,100190.03
2018-09-23T00:07:40.413Z,100173.95
2018-09-23T00:10:08.830Z,100167.45
2018-09-23T00:12:37.222Z,100160.93
2018-09-23T00:15:05.720Z,100161.77
2018-09-23T00:17:34.113Z,100160.16
2018-09-23T00:20:02.569Z,100153.89
2018-09-23T00:22:30.981Z,100158.81
2018-09-23T00:24:59.416Z,100148.45
2018-09-23T00:27:27.926Z,100136.50
2018-09-23T00:29:56.351Z,100136.22
2018-09-23T00:32:25.607Z,100131.06
2018-09-23T00:34:54.019Z,100128.34
2018-09-23T00:37:23.230Z,100109.88
2018-09-23T00:39:51.674Z,100099.81
2018-09-23T00:42:20.095Z,100096.27
2018-09-23T00:44:48.534Z,100090.83
2018-09-23T00:47:16.928Z,100092.45
2018-09-23T00:49:46.449Z,100086.78
2018-09-23T00:52:14.877Z,100089.19
2018-09-23T00:54:43.300Z,100073.16
2018-09-23T00:57:11.705Z,100076.14
2018-09-23T00:59:40.121Z,100079.41
2018-09-23T01:02:08.549Z,100070.94
2018-09-23T01:04:36.957Z,100062.80
2018-09-23T01:07:05.414Z,100054.64
2018-09-23T01:09:33.842Z,100046.48
2018-09-23T01:12:02.313Z,100050.02
2018-09-23T01:14:30.741Z,100041.86
2018-09-23T01:16:59.170Z,100025.00
2018-09-23T01:19:27.545Z,100007.60
2018-09-23T01:21:55.984Z,100014.66
2018-09-23T01:24:24.381Z,100013.05
2018-09-23T01:26:52.833Z,100000.80
2018-09-23T01:29:21.209Z,99990.72
2018-09-23T01:31:49.694Z,99984.74
2018-09-23T01:34:18.115Z,99984.48
2018-09-23T01:36:46.592Z,99973.60
2018-09-23T01:39:14.963Z,99986.09
2018-09-23T01:41:43.392Z,99984.48
2018-09-23T01:44:11.780Z,99982.00
2018-09-23T01:46:40.229Z,99991.52
2018-09-23T01:49:08.627Z,99985.30
2018-09-23T01:51:37.126Z,99971.96
2018-09-23T01:54:05.557Z,99964.91
2018-09-23T01:56:33.961Z,99956.47
2018-09-23T01:59:02.359Z,99956.48
2018-09-23T02:01:30.788Z,99951.28
2018-09-23T02:03:59.216Z,99944.50
2018-09-23T02:06:27.646Z,99933.88
2018-09-23T02:08:56.126Z,99927.63
2018-09-23T02:11:24.619Z,99909.70
2018-09-23T02:13:52.996Z,99908.59
2018-09-23T02:16:21.433Z,99903.98
2018-09-23T02:18:49.879Z,99894.75
2018-09-23T02:21:18.353Z,99895.81
2018-09-23T02:23:46.714Z,99889.02
2018-09-23T02:26:15.127Z,99886.58
2018-09-23T02:28:43.494Z,99887.93
2018-09-23T02:31:11.926Z,99890.37
2018-09-23T02:33:40.376Z,99893.38
2018-09-23T02:36:08.786Z,99902.89
2018-09-23T02:38:37.186Z,99903.70
2018-09-23T02:41:05.654Z,99887.65
2018-09-23T02:43:34.084Z,99874.59
2018-09-23T02:46:02.617Z,99871.87
2018-09-23T02:48:31.259Z,99859.38
2018-09-23T02:50:59.814Z,99859.66
2018-09-23T02:53:28.313Z,99850.68
2018-09-23T02:55:56.753Z,99848.78
2018-09-23T02:58:25.167Z,99838.98
2018-09-23T03:00:53.569Z,99836.27
2018-09-23T03:03:22.023Z,99833.02
2018-09-23T03:05:50.492Z,99821.85
2018-09-23T03:08:18.989Z,99815.88
2018-09-23T03:10:47.470Z,99804.72
2018-09-23T03:13:15.892Z,99803.36
2018-09-23T03:15:44.289Z,99789.22
2018-09-23T03:18:12.757Z,99795.20
2018-09-23T03:20:41.174Z,99795.48
2018-09-23T03:23:09.578Z,99803.36
2018-09-23T03:25:38.078Z,99792.23
2018-09-23T03:28:06.538Z,99789.48
2018-09-23T03:30:34.985Z,99790.30
2018-09-23T03:33:03.361Z,99781.89
2018-09-23T03:35:31.770Z,99779.99
2018-09-23T03:38:00.193Z,99785.69
2018-09-23T03:40:28.565Z,99771.55
2018-09-23T03:42:57.002Z,99773.45
2018-09-23T03:45:25.433Z,99764.75
2018-09-23T03:47:53.842Z,99768.02
2018-09-23T03:50:22.237Z,99758.77
2018-09-23T03:52:50.662Z,99757.67
2018-09-23T03:55:19.040Z,99750.08
2018-09-23T03:57:47.451Z,99757.95
2018-09-23T04:00:15.861Z,99752.52
2018-09-23T04:02:44.261Z,99751.70
2018-09-23T04:05:12.675Z,99746.00
2018-09-23T04:07:41.147Z,99732.66
2018-09-23T04:10:09.618Z,99731.05
2018-09-23T04:12:38.040Z,99733.48
2018-09-23T04:15:06.477Z,99717.45
2018-09-23T04:17:34.889Z,99725.61
2018-09-23T04:20:03.360Z,99710.09
2018-09-23T04:22:35.905Z,99707.36
2018-09-23T04:25:04.342Z,99695.41
2018-09-23T04:27:32.763Z,99700.84
2018-09-23T04:30:01.244Z,99702.20
2018-09-23T04:32:29.658Z,99702.46
2018-09-23T04:34:58.058Z,99703.86
2018-09-23T04:37:26.481Z,99704.94
2018-09-23T04:39:54.857Z,99701.39
2018-09-23T04:42:23.244Z,99700.57
2018-09-23T04:44:51.619Z,99695.41
2018-09-23T04:47:20.015Z,99688.86
2018-09-23T04:49:48.417Z,99678.28
2018-09-23T04:52:16.846Z,99680.70
2018-09-23T04:54:45.225Z,99675.55
2018-09-23T04:57:13.625Z,99661.95
2018-09-23T04:59:42.853Z,99670.89
2018-09-23T05:02:11.409Z,99675.80
2018-09-23T05:04:39.786Z,99663.84
2018-09-23T05:07:08.198Z,99653.21
2018-09-23T05:09:36.650Z,99651.60
2018-09-23T05:12:05.086Z,99651.60
2018-09-23T05:14:33.516Z,99656.75
2018-09-23T05:17:02.029Z,99643.69
2018-09-23T05:19:30.437Z,99648.34
2018-09-23T05:21:58.865Z,99646.16
2018-09-23T05:24:27.333Z,99641.80
2018-09-23T05:26:55.717Z,99647.23
2018-09-23T05:29:24.118Z,99642.33
2018-09-23T05:31:52.521Z,99643.44
2018-09-23T05:34:20.909Z,99640.44
2018-09-23T05:36:49.303Z,99644.51
2018-09-23T05:39:17.702Z,99646.39
2018-09-23T05:41:46.095Z,99643.67
2018-09-23T05:44:14.555Z,99649.94
2018-09-23T05:46:42.934Z,99646.92
2018-09-23T05:49:11.789Z,99645.02
2018-09-23T05:51:40.164Z,99643.90
2018-09-23T05:54:08.580Z,99628.92
2018-09-23T05:56:37.193Z,99627.56
2018-09-23T05:59:05.673Z,99617.22
2018-09-23T06:01:34.060Z,99622.38
2018-09-23T06:04:02.537Z,99629.16
2018-09-23T06:06:30.923Z,99625.08
2018-09-23T06:08:59.345Z,99624.26
2018-09-23T06:11:27.740Z,99621.28
2018-09-23T06:13:56.170Z,99616.09
2018-09-23T06:16:24.570Z,99616.91
2018-09-23T06:18:52.965Z,99607.09
2018-09-23T06:21:21.438Z,99604.36
2018-09-23T06:23:49.913Z,99600.56
2018-09-23T06:26:18.311Z,99596.47
2018-09-23T06:28:47.312Z,99596.19
2018-09-23T06:31:16.930Z,99595.11
2018-09-23T06:33:45.590Z,99592.62
2018-09-23T06:36:14.250Z,99596.69
2018-09-23T06:38:42.898Z,99587.41
2018-09-23T06:41:11.553Z,99589.02
2018-09-23T06:43:40.294Z,99592.75
2018-09-23T06:46:08.807Z,99597.39
2018-09-23T06:48:37.195Z,99599.55
2018-09-23T06:51:05.939Z,99602.55
2018-09-23T06:53:34.365Z,99601.74
2018-09-23T06:56:02.753Z,99595.70
2018-09-23T06:58:31.145Z,99585.84
2018-09-23T07:00:59.594Z,99585.18
2018-09-23T07:03:28.025Z,99581.77
2018-09-23T07:05:56.453Z,99581.18
2018-09-23T07:08:24.941Z,99577.28
2018-09-23T07:10:53.338Z,99573.08
2018-09-23T07:13:21.757Z,99576.09
2018-09-23T07:15:50.215Z,99574.37
2018-09-23T07:18:18.615Z,99575.48
2018-09-23T07:20:47.021Z,99581.22
2018-09-23T07:23:15.390Z,99575.14
2018-09-23T07:25:43.829Z,99583.64
2018-09-23T07:28:12.209Z,99586.30
2018-09-23T07:30:40.665Z,99586.55
2018-09-23T07:33:09.122Z,99589.91
2018-09-23T07:35:37.569Z,99578.12
2018-09-23T07:38:06.005Z,99580.45
2018-09-23T07:40:34.405Z,99565.24
2018-09-23T07:43:02.787Z,99578.05
2018-09-23T07:45:31.174Z,99570.27
2018-09-23T07:47:59.562Z,99573.42
2018-09-23T07:50:27.985Z,99578.75
2018-09-23T07:52:56.373Z,99583.85
2018-09-23T07:55:25.402Z,99575.94
2018-09-23T07:57:53.782Z,99568.48
2018-09-23T08:00:22.178Z,99573.52
2018-09-23T08:02:50.574Z,99572.18
2018-09-23T08:05:18.997Z,99571.58
2018-09-23T08:07:47.411Z,99573.66
2018-09-23T08:10:15.802Z,99575.50
2018-09-23T08:12:44.319Z,99569.08
2018-09-23T08:15:12.670Z,99575.50
2018-09-23T08:17:41.062Z,99569.69
2018-09-23T08:20:09.603Z,99572.00
2018-09-23T08:22:37.892Z,99569.23
2018-09-23T08:25:06.461Z,99560.38
2018-09-23T08:27:34.844Z,99566.37
2018-09-23T08:30:03.290Z,99557.02
2018-09-23T08:32:31.677Z,99547.88
2018-09-23T08:35:00.087Z,99553.38
2018-09-23T08:37:28.535Z,99547.69
2018-09-23T08:39:56.954Z,99552.60
2018-09-23T08:42:25.315Z,99552.13
2018-09-23T08:44:53.765Z,99540.43
2018-09-23T08:47:22.202Z,99536.65
2018-09-23T08:49:50.595Z,99542.38
2018-09-23T08:52:19.008Z,99532.66
2018-09-23T08:54:47.389Z,99532.92
2018-09-23T08:57:15.904Z,99537.44
2018-09-23T08:59:44.314Z,99520.81
2018-09-23T09:02:12.823Z,99520.58
2018-09-23T09:04:41.217Z,99513.98
2018-09-23T09:07:09.650Z,99512.48
2018-09-23T09:09:38.078Z,99514.70
2018-09-23T09:12:06.634Z,99503.66
2018-09-23T09:14:35.045Z,99498.66
2018-09-23T09:17:03.469Z,99494.50
2018-09-23T09:19:31.890Z,99477.36
2018-09-23T09:22:00.271Z,99465.56
2018-09-23T09:24:28.725Z,99466.17
2018-09-23T09:26:57.188Z,99468.97
2018-09-23T09:29:25.581Z,99462.44
2018-09-23T09:31:54.025Z,99465.91
2018-09-23T09:34:22.422Z,99457.72
2018-09-23T09:36:50.816Z,99453.56
2018-09-23T09:39:19.218Z,99452.77
2018-09-23T09:41:47.717Z,99447.45
2018-09-23T09:44:16.161Z,99452.50
2018-09-23T09:46:44.591Z,99448.86
2018-09-23T09:49:12.993Z,99432.83
2018-09-23T09:51:41.477Z,99430.45
2018-09-23T09:54:09.954Z,99419.25
2018-09-23T09:56:38.372Z,99419.42
2018-09-23T09:59:06.789Z,99417.28
2018-09-23T10:01:35.193Z,99422.34
2018-09-23T10:04:03.594Z,99408.63
2018-09-23T10:06:32.078Z,99396.33
2018-09-23T10:09:00.469Z,99381.84
2018-09-23T10:11:28.884Z,99371.61
2018-09-23T10:13:57.286Z,99367.38
2018-09-23T10:16:25.686Z,99366.92
2018-09-23T10:18:54.078Z,99358.76
2018-09-23T10:21:22.543Z,99349.95
2018-09-23T10:23:51.409Z,99345.86
2018-09-23T10:26:19.781Z,99331.05
2018-09-23T10:28:48.411Z,99323.08
2018-09-23T10:31:16.883Z,99322.48
2018-09-23T10:33:45.213Z,99313.91
2018-09-23T10:36:13.661Z,99307.30
2018-09-23T10:38:42.029Z,99285.13
2018-09-23T10:41:10.502Z,99283.59
2018-09-23T10:43:38.892Z,99281.77
2018-09-23T10:46:07.310Z,99262.39
2018-09-23T10:48:35.713Z,99259.89
2018-09-23T10:51:04.260Z,99261.14
2018-09-23T10:53:33.277Z,99252.06
2018-09-23T10:56:01.718Z,99244.77
2018-09-23T10:58:30.118Z,99246.16
2018-09-23T11:00:58.549Z,99234.46
2018-09-23T11:03:26.955Z,99226.50
2018-09-23T11:05:55.390Z,99216.73
2018-09-23T11:08:23.840Z,99218.73
2018-09-23T11:10:52.284Z,99230.90
2018-09-23T11:13:20.675Z,99238.39
2018-09-23T11:15:49.145Z,99258.53
2018-09-23T11:18:17.629Z,99251.59
2018-09-23T11:20:46.210Z,99251.75
2018-09-23T11:23:14.648Z,99232.67
2018-09-23T11:25:43.021Z,99218.04
2018-09-23T11:28:11.442Z,99213.13
2018-09-23T11:30:39.877Z,99207.05
2018-09-23T11:33:08.300Z,99184.03
2018-09-23T11:35:36.713Z,99170.12
2018-09-23T11:38:05.327Z,99165.88
2018-09-23T11:40:33.739Z,99161.80
2018-09-23T11:43:02.210Z,99147.50
2018-09-23T11:45:30.607Z,99129.14
2018-09-23T11:47:59.006Z,99126.14
2018-09-23T11:50:27.417Z,99130.36
2018-09-23T11:52:55.868Z,99106.70
2018-09-23T11:55:24.274Z,99072.52
2018-09-23T11:57:52.695Z,99097.18
2018-09-23T12:00:21.095Z,99109.98
2018-09-23T12:02:49.497Z,99117.85
2018-09-23T12:05:17.906Z,99150.42
2018-09-23T12:07:46.324Z,99170.83
2018-09-23T12:10:14.789Z,99148.09
2018-09-23T12:12:43.178Z,99134.95
2018-09-23T12:15:11.546Z,99112.39
2018-09-23T12:17:39.974Z,99097.62
2018-09-23T12:20:08.359Z,99070.67
2018-09-23T12:22:36.913Z,99088.02
2018-09-23T12:25:05.417Z,99087.07
2018-09-23T12:27:33.853Z,99099.69
2018-09-23T12:30:02.559Z,99121.73
2018-09-23T12:32:31.085Z,99139.21
2018-09-23T12:34:59.691Z,99164.03
2018-09-23T12:37:28.249Z,99173.56
2018-09-23T12:39:57.295Z,99198.19
2018-09-23T12:42:25.752Z,99218.97
2018-09-23T12:44:57.979Z,99237.19
2018-09-23T12:47:26.559Z,99251.04
2018-09-23T12:49:55.033Z,99264.23
2018-09-23T12:52:23.462Z,99295.31
2018-09-23T12:54:51.874Z,99320.88
2018-09-23T12:57:20.325Z,99314.66
2018-09-23T12:59:48.838Z,99306.25
2018-09-23T13:02:17.360Z,99296.55
2018-09-23T13:04:45.870Z,99268.02
2018-09-23T13:07:14.310Z,99263.95
2018-09-23T13:09:42.733Z,99270.41
2018-09-23T13:12:11.154Z,99276.47
2018-09-23T13:14:39.570Z,99315.33
2018-09-23T13:17:07.957Z,99362.69
2018-09-23T13:19:36.402Z,99358.64
2018-09-23T13:22:04.861Z,99388.54
2018-09-23T13:24:33.318Z,99424.17
2018-09-23T13:27:01.726Z,99373.33
2018-09-23T13:29:30.221Z,99390.72
2018-09-23T13:31:58.773Z,99395.02
2018-09-23T13:34:27.230Z,99399.39
2018-09-23T13:36:56.342Z,99398.23
2018-09-23T13:39:24.807Z,99390.08
2018-09-23T13:41:53.291Z,99385.73
2018-09-23T13:44:21.730Z,99371.02
2018-09-23T13:46:50.380Z,99337.83
2018-09-23T13:49:18.926Z,99333.51
2018-09-23T13:51:47.406Z,99337.92
2018-09-23T13:54:15.851Z,99354.11
2018-09-23T13:56:44.326Z,99374.71
2018-09-23T13:59:12.763Z,99356.95
2018-09-23T14:01:41.473Z,99313.19
2018-09-23T14:04:10.951Z,99366.81
2018-09-23T14:06:40.634Z,99385.29
2018-09-23T14:09:09.350Z,99401.95
2018-09-23T14:11:37.966Z,99402.30
2018-09-23T14:14:06.614Z,99401.26
2018-09-23T14:16:35.210Z,99382.84
2018-09-23T14:19:03.838Z,99399.06
2018-09-23T14:21:32.357Z,99414.66
2018-09-23T14:24:00.977Z,99414.98
2018-09-23T14:26:29.491Z,99432.41
2018-09-23T14:28:58.481Z,99444.06
2018-09-23T14:31:27.418Z,99440.81
2018-09-23T14:34:01.041Z,99462.07
2018-09-23T14:36:29.591Z,99474.56
2018-09-23T14:38:58.173Z,99473.77
2018-09-23T14:41:26.777Z,99456.42
2018-09-23T14:43:55.373Z,99492.56
2018-09-23T14:46:37.433Z,99514.30
2018-09-23T14:49:06.031Z,99517.56
2018-09-23T14:51:34.551Z,99529.50
2018-09-23T14:54:03.184Z,99517.82
2018-09-23T14:56:31.836Z,99544.72
2018-09-23T14:59:00.610Z,99560.73
2018-09-23T15:01:29.452Z,99547.16
2018-09-23T15:03:58.246Z,99541.47
2018-09-23T15:06:26.784Z,99573.77
2018-09-23T15:08:55.604Z,99588.98
2018-09-23T15:11:24.033Z,99587.64
2018-09-23T15:13:53.041Z,99588.45
2018-09-23T15:16:21.565Z,99602.56
2018-09-23T15:18:50.104Z,99609.36
2018-09-23T15:21:18.602Z,99600.11
2018-09-23T15:23:47.062Z,99614.51
2018-09-23T15:26:19.679Z,99609.36
2018-09-23T15:28:48.131Z,99617.78
2018-09-23T15:31:16.645Z,99630.80
2018-09-23T15:33:45.101Z,99635.16
2018-09-23T15:36:13.610Z,99636.50
2018-09-23T15:38:43.115Z,99637.04
2018-09-23T15:41:11.598Z,99631.32
2018-09-23T15:43:40.123Z,99647.90
2018-09-23T15:46:08.844Z,99659.56
2018-09-23T15:48:37.299Z,99670.95
2018-09-23T15:51:15.438Z,99669.84
2018-09-23T15:53:43.899Z,99694.55
2018-09-23T15:56:12.376Z,99694.53
2018-09-23T15:58:40.956Z,99721.65
2018-09-23T16:01:09.485Z,99720.06
2018-09-23T16:03:41.221Z,99741.22
2018-09-23T16:06:09.869Z,99756.39
2018-09-23T16:08:38.629Z,99766.17
2018-09-23T16:11:07.558Z,99765.06
2018-09-23T16:13:36.097Z,99772.66
2018-09-23T16:16:10.183Z,99789.24
2018-09-23T16:18:38.708Z,99795.75
2018-09-23T16:21:07.274Z,99787.59
2018-09-23T16:23:35.890Z,99816.66
2018-09-23T16:26:04.428Z,99830.22
2018-09-23T16:28:32.893Z,99814.75
2018-09-23T16:31:03.530Z,99835.38
2018-09-23T16:33:32.113Z,99854.09
2018-09-23T16:36:00.598Z,99862.51
2018-09-23T16:38:29.055Z,99864.36
2018-09-23T16:40:57.509Z,99885.52
2018-09-23T16:43:25.952Z,99912.05
2018-09-23T16:45:54.493Z,99921.00
2018-09-23T16:48:22.916Z,99919.87
2018-09-23T16:50:51.419Z,99941.50
2018-09-23T16:53:19.890Z,99951.81
2018-09-23T16:55:48.442Z,99952.78
2018-09-23T16:58:25.146Z,99959.61
2018-09-23T17:00:53.651Z,99972.06
2018-09-23T17:03:22.090Z,99972.51
2018-09-23T17:05:50.945Z,99982.51
2018-09-23T17:08:19.453Z,99997.00
2018-09-23T17:10:58.579Z,100018.59
2018-09-23T17:13:27.071Z,100028.28
2018-09-23T17:15:55.705Z,100039.91
2018-09-23T17:18:24.199Z,100047.05
2018-09-23T17:20:52.711Z,100058.55
2018-09-23T17:23:21.275Z,100067.23
2018-09-23T17:25:49.769Z,100083.42
2018-09-23T17:28:25.380Z,100091.26
2018-09-23T17:30:54.034Z,100100.02
2018-09-23T17:33:22.608Z,100108.21
2018-09-23T17:35:51.162Z,100127.91
2018-09-23T17:38:19.732Z,100128.92
2018-09-23T17:40:49.212Z,100141.10
2018-09-23T17:43:17.682Z,100159.36
2018-09-23T17:45:46.239Z,100158.56
2018-09-23T17:48:21.234Z,100173.20
2018-09-23T17:50:49.764Z,100191.06
2018-09-23T17:53:18.786Z,100188.41
2018-09-23T17:55:47.298Z,100207.88
2018-09-23T17:58:15.724Z,100212.16
2018-09-23T18:00:44.357Z,100231.62
2018-09-23T18:03:14.158Z,100241.05
2018-09-23T18:05:43.057Z,100265.06
2018-09-23T18:08:11.943Z,100273.16
2018-09-23T18:10:40.565Z,100289.36
2018-09-23T18:13:09.006Z,100290.13
2018-09-23T18:15:37.971Z,100300.23
2018-09-23T18:18:06.542Z,100302.12
2018-09-23T18:20:44.664Z,100307.53
2018-09-23T18:23:13.202Z,100322.52
2018-09-23T18:25:41.717Z,100324.05
2018-09-23T18:28:10.858Z,100334.15
2018-09-23T18:30:39.298Z,100350.97
2018-09-23T18:33:24.489Z,100356.44
2018-09-23T18:35:52.946Z,100366.95
2018-09-23T18:38:21.496Z,100374.77
2018-09-23T18:40:50.114Z,100381.48
2018-09-23T18:43:18.555Z,100385.52
2018-09-23T18:45:47.294Z,100396.62
2018-09-23T18:48:15.803Z,100390.93
2018-09-23T18:50:45.290Z,100411.04
2018-09-23T18:53:18.966Z,100412.61
2018-09-23T18:55:48.390Z,100424.38
2018-09-23T18:58:16.936Z,100437.67
2018-09-23T19:00:45.425Z,100449.00
2018-09-23T19:03:18.302Z,100450.11
2018-09-23T19:05:50.277Z,100451.33
2018-09-23T19:08:18.861Z,100449.22
2018-09-23T19:10:47.385Z,100464.17
2018-09-23T19:13:27.070Z,100466.76
2018-09-23T19:16:09.720Z,100472.29
2018-09-23T19:18:38.287Z,100485.00
2018-09-23T19:21:06.886Z,100496.08
2018-09-23T19:23:35.498Z,100507.30
2018-09-23T19:26:04.022Z,100508.44
2018-09-23T19:28:32.540Z,100511.95
2018-09-23T19:31:07.678Z,100511.67
2018-09-23T19:33:36.450Z,100515.73
2018-09-23T19:36:05.033Z,100531.92
2018-09-23T19:38:38.201Z,100530.62
2018-09-23T19:41:06.840Z,100543.19
2018-09-23T19:43:35.322Z,100539.64
2018-09-23T19:46:03.950Z,100558.02
2018-09-23T19:48:32.397Z,100554.88
2018-09-23T19:51:00.925Z,100561.12
2018-09-23T19:53:29.507Z,100567.30
2018-09-23T19:55:57.958Z,100570.31
2018-09-23T19:58:26.445Z,100575.61
2018-09-23T20:00:55.169Z,100584.77
2018-09-23T20:03:28.231Z,100590.19
2018-09-23T20:05:56.660Z,100597.54
2018-09-23T20:08:25.263Z,100605.59
2018-09-23T20:10:54.058Z,100615.31
2018-09-23T20:13:22.701Z,100618.02
2018-09-23T20:15:51.285Z,100630.02
2018-09-23T20:18:19.845Z,100634.85
2018-09-23T20:20:48.282Z,100648.31
2018-09-23T20:23:22.334Z,100650.81
2018-09-23T20:25:50.776Z,100660.05
2018-09-23T20:28:19.325Z,100671.39
2018-09-23T20:30:47.736Z,100676.73
2018-09-23T20:33:16.977Z,100682.22
2018-09-23T20:35:45.420Z,100693.36
2018-09-23T20:38:16.068Z,100700.12
2018-09-23T20:40:44.529Z,100709.12
2018-09-23T20:43:12.954Z,100716.65
2018-09-23T20:45:41.382Z,100726.50
2018-09-23T20:48:09.965Z,100735.15
2018-09-23T20:50:38.413Z,100737.99
2018-09-23T20:53:07.022Z,100742.34
2018-09-23T20:55:35.504Z,100746.05
2018-09-23T20:58:03.938Z,100753.92
2018-09-23T21:00:32.714Z,100758.20
2018-09-23T21:03:01.217Z,100760.52
2018-09-23T21:05:29.666Z,100764.55
2018-09-23T21:07:58.922Z,100766.04
2018-09-23T21:10:27.392Z,100775.38
2018-09-23T21:12:55.846Z,100781.84
2018-09-23T21:15:24.286Z,100783.85
2018-09-23T21:17:52.706Z,100790.27
2018-09-23T21:20:21.210Z,100802.14
2018-09-23T21:22:49.614Z,100804.92
2018-09-23T21:25:18.067Z,100816.66
2018-09-23T21:27:46.490Z,100825.30
2018-09-23T21:30:14.901Z,100828.88
2018-09-23T21:32:43.324Z,100830.55
2018-09-23T21:35:11.765Z,100845.20
2018-09-23T21:37:40.188Z,100847.84
2018-09-23T21:40:08.714Z,100852.36
2018-09-23T21:42:40.409Z,100859.05
2018-09-23T21:45:08.861Z,100858.22
2018-09-23T21:47:37.286Z,100863.70
2018-09-23T21:50:05.753Z,100864.16
2018-09-23T21:52:34.173Z,100870.92
2018-09-23T21:55:02.587Z,100873.56
2018-09-23T21:57:31.087Z,100868.10
2018-09-23T21:59:59.525Z,100876.43
2018-09-23T22:02:28.018Z,100881.56
2018-09-23T22:04:56.435Z,100892.60
2018-09-23T22:07:24.896Z,100894.13
2018-09-23T22:09:53.349Z,100893.88
2018-09-23T22:12:21.785Z,100903.16
2018-09-23T22:14:50.234Z,100882.42
2018-09-23T22:17:18.702Z,100912.47
2018-09-23T22:19:47.126Z,100917.28
2018-09-23T22:22:16.041Z,100923.46
2018-09-23T22:24:44.489Z,100941.81
2018-09-23T22:27:12.922Z,100951.30
2018-09-23T22:29:41.331Z,100949.70
2018-09-23T22:32:09.733Z,100959.94
2018-09-23T22:34:38.161Z,100960.17
2018-09-23T22:37:06.706Z,100959.86
2018-09-23T22:39:35.154Z,100970.61
2018-09-23T22:42:03.665Z,100973.16
2018-09-23T22:44:50.573Z,100973.55
2018-09-23T22:47:19.127Z,100974.22
2018-09-23T22:49:47.588Z,100988.42
2018-09-23T22:52:16.028Z,100992.08
2018-09-23T22:54:44.490Z,101001.19
2018-09-23T22:57:12.909Z,101005.56
2018-09-23T22:59:41.426Z,101012.44
2018-09-23T23:02:10.002Z,101020.52
2018-09-23T23:04:38.499Z,101028.31
2018-09-23T23:07:06.993Z,101024.17
2018-09-23T23:09:35.571Z,101026.03
2018-09-23T23:12:04.153Z,101033.64
2018-09-23T23:14:33.111Z,101044.17
2018-09-23T23:17:01.675Z,101041.06
2018-09-23T23:19:30.188Z,101045.87
2018-09-23T23:21:58.585Z,101036.45
2018-09-23T23:24:27.198Z,101047.88
2018-09-23T23:26:55.602Z,101054.13
2018-09-23T23:29:24.070Z,101054.41
2018-09-23T23:31:52.519Z,101070.97
2018-09-23T23:34:20.993Z,101076.15
2018-09-23T23:36:49.406Z,101081.27
2018-09-23T23:39:17.815Z,101086.36
2018-09-23T23:41:46.193Z,101091.03
2018-09-23T23:44:14.597Z,101095.17
2018-09-23T23:46:43.035Z,101100.50
2018-09-23T23:49:11.565Z,101112.67
2018-09-23T23:51:40.054Z,101119.89
2018-09-23T23:54:08.482Z,101121.25
2018-09-23T23:56:37.442Z,101128.44
2018-09-23T23:59:06.187Z,101133.01
